Airfield :
LOGIN :

Register | Disclaimer

   EN    FR    IT 

 










Legend :    VFR   Marginal VFR   IFR   Intensive IFR   Very Intensive IFR
Visi :
Ceiling :
>= 8 km
>= 3000ft
5 to 8 km
1000 to 3000 ft
1500m to 5 km
500 to 1000 ft
800 to 1500m
200 to 500 ft
< 800m
< 200 ft
Symbols :   Thunderstorms  Fog  Heavy snow  Heavy precipitations  Wind > 20 kt
SIGMETs :     Misc.  Thunderstorms  Icing  Turbulence  Mountain Waves  Volcanic Ashes






- Airport Elevation : 587 ft
- IATA code : XCR


LFOK - Chalons Vatry

CURRENT METAR :
  • 170130Z AUTO 22014KT 9999 -RA FEW036/// BKN050/// BKN074/// ///CB 08/07 Q1016 TEMPO 25015G25KT 3000 RA BKN008 SCT020TCU

EXPIRED METARs :
  • 170100Z AUTO 24016KT 9999 -RA FEW014/// BKN060/// OVC070/// ///TCU 08/08 Q1016 TEMPO 25015G25KT 3000 RA BKN008 SCT020TCU
  • 170030Z AUTO 22016KT 5000 RA BR BKN008/// BKN014/// BKN032/// ///CB 08/08 Q1016 TEMPO 25015G25KT
  • 170000Z AUTO 23014KT 9999 -RA FEW007/// BKN012/// BKN018/// ///CB 08/08 Q1016 TEMPO 25015G25KT 3000 RA BKN008 SCT020TCU
  • 162330Z AUTO 24011KT 8000 -RA FEW016/// SCT048/// OVC058/// ///TCU 08/08 Q1015 TEMPO 25015G25KT 3000 RA BKN008 SCT020TCU
  • 162300Z AUTO 25016KT 8000 -RA BKN006 BKN013 OVC052 08/08 Q1014 BECMG NSC

TAF TAF LFOK
Valid from the 17 at 00:00 until the 18 at 00:00 UTC


162300Z 1700/1724 22015KT 9999 SCT015 BKN030
TEMPO 1700/1709 25015G25KT 3000 RA BKN008 SCT020TCU
BECMG 1709/1711 22015G25KT
TEMPO 1712/1718 25020G35KT 4000 SHRA BKN013TCU
PROB40
TEMPO 1714/1717 26025G45KT 2000 SHRA BKN030CB
BECMG 1718/1720 22015KT



MET'MAP, your aeronautical weather chart ! - Copyright ORBIFLY December 2007 - Disclaimer

ORBIFLY MET'MAP TEAM :

Programming & Development : Alexandra Zaïnal
Concept & original design : Baudouin d'Aumeries
Assistance for programming : Marc-Olivier Méhu
Technical & hardware support : Manuel Goepfert

Contact : metmap@orbifly.com




SOURCES & CREDITS :

   NOAA